Time;durP1;ratioP1;P1;durP2;ratioP2;P2;SDS_P1;SDS_P2;PMS_P1;PMS_P2;Temp;Humidity;BMP_temperature;BMP_pressure;BME280_temperature;BME280_humidity;BME280_pressure;Samples;Min_cycle;Max_cycle;Signal;HPM_P1;HPM_P2
2024/03/26 00:00:06;;;;;;;80.27;30.17;;;;;;;13.25;43.88;99815.97;5078288;28;20052;-82
2024/03/26 00:02:54;;;;;;;;;;;;;;;13.24;43.15;99812.44;5065169;28;20263;-82
2024/03/26 00:05:49;;;;;;;30.73;14.00;;;;;;;13.09;43.45;99804.25;5076346;28;19913;-81
2024/03/26 00:08:43;;;;;;;24.63;11.70;;;;;;;13.17;43.62;99806.00;5078938;28;20497;-81
2024/03/26 00:11:38;;;;;;;14.63;6.07;;;;;;;13.17;43.42;99797.81;5075306;28;20510;-81
2024/03/26 00:14:30;;;;;;;11.30;5.77;;;;;;;13.11;43.21;99796.47;5078999;28;20048;-81
2024/03/26 00:17:22;;;;;;;18.77;9.20;;;;;;;13.04;42.83;99796.31;5077796;28;20047;-80
2024/03/26 00:20:16;;;;;;;9.15;5.10;;;;;;;12.90;42.67;99794.03;5063759;28;20048;-79
2024/03/26 00:23:12;;;;;;;8.30;3.03;;;;;;;12.97;42.41;99791.47;5086746;28;20051;-79
2024/03/26 00:26:03;;;;;;;3.05;1.27;;;;;;;12.74;43.66;99793.25;5095470;28;20524;-81
2024/03/26 00:28:58;;;;;;;7.47;1.75;;;;;;;12.43;43.91;99785.84;5084336;28;20047;-81
2024/03/26 00:31:48;;;;;;;2.50;1.55;;;;;;;12.23;44.10;99782.22;5083544;28;20051;-81
2024/03/26 00:34:37;;;;;;;8.07;2.10;;;;;;;12.55;43.34;99782.22;5083829;28;20047;-81
2024/03/26 00:37:32;;;;;;;5.68;3.30;;;;;;;12.71;42.79;99777.56;5084210;28;20050;-81
2024/03/26 00:40:26;;;;;;;7.03;2.75;;;;;;;12.72;42.50;99766.31;5083986;28;20047;-81
2024/03/26 00:43:21;;;;;;;5.00;2.67;;;;;;;12.32;43.61;99765.69;5084314;28;20043;-81
2024/03/26 00:46:16;;;;;;;3.37;1.80;;;;;;;12.47;43.36;99767.63;5083689;28;20043;-81
2024/03/26 00:49:10;;;;;;;4.95;1.65;;;;;;;12.68;42.30;99751.81;5103512;28;20062;-81
2024/03/26 00:52:03;;;;;;;4.88;1.80;;;;;;;12.16;42.71;99749.31;5083260;28;20043;-81
2024/03/26 00:54:55;;;;;;;8.85;2.20;;;;;;;11.87;43.66;99742.31;5102245;28;20039;-81
2024/03/26 00:57:50;;;;;;;7.10;2.88;;;;;;;11.44;44.83;99740.25;5089023;28;20555;-80
2024/03/26 01:00:48;;;;;;;8.75;2.33;;;;;;;11.27;44.90;99726.16;5087275;28;20050;-80
2024/03/26 01:03:42;;;;;;;12.63;4.28;;;;;;;11.34;44.18;99718.16;5087915;28;20444;-79
2024/03/26 01:06:32;;;;;;;4.63;2.27;;;;;;;11.59;44.16;99704.13;5097367;28;20043;-81
2024/03/26 01:09:26;;;;;;;3.33;2.20;;;;;;;11.61;44.30;99703.00;5087811;28;20065;-81
2024/03/26 01:12:21;;;;;;;6.03;2.38;;;;;;;11.58;43.64;99694.38;5083463;28;20615;-79
2024/03/26 01:15:16;;;;;;;5.55;2.78;;;;;;;11.59;43.78;99681.56;5096140;28;20512;-79
2024/03/26 01:18:08;;;;;;;7.80;2.77;;;;;;;11.53;43.92;99680.22;5087896;28;20044;-81
2024/03/26 01:21:03;;;;;;;6.38;2.50;;;;;;;11.55;44.82;99678.75;5087362;28;20051;-79
2024/03/26 01:23:55;;;;;;;6.07;2.83;;;;;;;11.45;44.20;99676.53;5102847;28;20051;-79
2024/03/26 01:26:47;;;;;;;4.97;3.05;;;;;;;11.44;44.07;99679.56;5096887;28;20051;-79
2024/03/26 01:29:41;;;;;;;4.75;2.90;;;;;;;11.40;43.97;99673.25;5102543;28;20039;-80
2024/03/26 01:32:36;;;;;;;3.30;2.20;;;;;;;11.21;43.72;99681.25;5087652;28;20047;-80
2024/03/26 01:35:31;;;;;;;5.10;3.50;;;;;;;11.63;42.88;99677.00;5084777;28;20273;-81
2024/03/26 01:38:23;;;;;;;10.90;2.95;;;;;;;11.68;42.44;99665.09;5087336;28;20043;-79
2024/03/26 01:41:24;;;;;;;8.55;3.90;;;;;;;11.82;42.14;99657.31;5088460;28;20047;-80
2024/03/26 01:44:18;;;;;;;5.88;3.58;;;;;;;11.80;41.58;99654.94;5086937;28;20062;-81
2024/03/26 01:47:10;;;;;;;5.53;2.70;;;;;;;11.57;40.79;99653.91;5087319;28;20417;-81
2024/03/26 01:50:01;;;;;;;7.80;3.38;;;;;;;11.71;40.65;99651.56;5086887;28;20055;-81
2024/03/26 01:52:51;;;;;;;10.35;3.55;;;;;;;11.85;40.03;99656.63;5067058;28;20079;-81
2024/03/26 01:55:46;;;;;;;12.40;5.05;;;;;;;11.82;40.47;99649.16;5063724;28;20039;-79
2024/03/26 01:58:36;;;;;;;11.60;5.77;;;;;;;11.84;40.03;99655.03;5066924;28;20123;-81
2024/03/26 02:01:36;;;;;;;12.88;5.82;;;;;;;11.74;39.75;99642.72;5065076;28;20051;-79
2024/03/26 02:04:28;;;;;;;9.85;4.57;;;;;;;11.54;40.46;99630.88;5062406;28;20048;-80
2024/03/26 02:07:23;;;;;;;9.63;4.22;;;;;;;11.50;40.87;99630.00;5060308;28;20056;-79
2024/03/26 02:10:13;;;;;;;12.55;3.63;;;;;;;11.33;41.36;99613.94;5081135;28;20040;-79
2024/03/26 02:13:08;;;;;;;12.05;3.35;;;;;;;11.54;41.30;99619.19;5061636;28;20044;-79
2024/03/26 02:16:03;;;;;;;7.50;3.28;;;;;;;11.58;41.24;99620.06;5062678;28;20036;-79
2024/03/26 02:18:57;;;;;;;16.53;3.03;;;;;;;11.50;41.32;99607.41;5081283;28;20047;-79
2024/03/26 02:21:49;;;;;;;7.07;2.45;;;;;;;11.28;41.98;99599.78;5096971;28;20527;-79
2024/03/26 02:24:43;;;;;;;4.88;2.40;;;;;;;11.46;41.60;99598.38;5101221;28;20051;-80
2024/03/26 02:27:43;;;;;;;4.25;2.00;;;;;;;11.28;40.89;99597.06;5086735;28;20039;-79
2024/03/26 02:30:38;;;;;;;8.40;2.47;;;;;;;11.26;40.62;99604.81;5086363;28;20047;-79
2024/03/26 02:33:32;;;;;;;12.33;1.97;;;;;;;11.43;40.31;99601.78;5097362;28;20043;-79
2024/03/26 02:36:27;;;;;;;10.63;1.63;;;;;;;11.21;40.52;99594.97;5081445;28;20044;-79
2024/03/26 02:39:21;;;;;;;5.85;2.10;;;;;;;11.46;40.49;99591.00;5086192;28;20402;-79
2024/03/26 02:42:16;;;;;;;3.97;2.00;;;;;;;11.23;40.79;99591.88;5086189;28;20043;-79
2024/03/26 02:45:12;;;;;;;3.83;1.90;;;;;;;11.23;41.03;99581.78;5084805;28;20293;-79
2024/03/26 02:48:04;;;;;;;;;;;;;;;11.53;40.81;99590.38;5086986;28;20047;-79
2024/03/26 02:50:59;;;;;;;3.65;1.90;;;;;;;11.32;40.03;99573.50;5098958;28;19911;-80
2024/03/26 02:53:48;;;;;;;3.28;1.08;;;;;;;11.34;40.37;99568.47;5101015;28;20071;-81
2024/03/26 02:56:43;;;;;;;4.72;1.73;;;;;;;11.50;39.69;99564.66;5094742;28;20043;-79
2024/03/26 02:59:37;;;;;;;2.27;1.70;;;;;;;11.65;39.22;99557.63;5085600;28;20051;-80
2024/03/26 03:02:29;;;;;;;1.65;1.35;;;;;;;11.24;39.78;99556.16;5085834;28;20047;-79
2024/03/26 03:05:21;;;;;;;2.53;1.42;;;;;;;10.61;41.23;99557.88;5083384;28;20047;-79
2024/03/26 03:08:15;;;;;;;2.28;1.50;;;;;;;10.47;41.52;99565.59;5084958;28;20066;-80
2024/03/26 03:11:10;;;;;;;5.77;2.37;;;;;;;10.24;42.24;99551.72;5100122;28;20047;-80
2024/03/26 03:14:08;;;;;;;2.67;1.02;;;;;;;10.84;41.08;99563.59;5078936;28;20288;-79
2024/03/26 03:17:02;;;;;;;4.25;1.70;;;;;;;11.33;40.41;99547.84;5078645;28;20047;-80
2024/03/26 03:19:57;;;;;;;4.38;1.67;;;;;;;11.60;40.06;99557.91;5085331;28;20523;-80
2024/03/26 03:22:49;;;;;;;3.88;1.58;;;;;;;11.31;40.66;99555.59;5085070;28;20043;-80
2024/03/26 03:25:41;;;;;;;1.90;1.38;;;;;;;11.41;41.41;99550.41;5082241;28;20047;-79
2024/03/26 03:28:35;;;;;;;4.30;1.10;;;;;;;11.24;42.41;99545.28;5093771;28;20042;-79
2024/03/26 03:31:30;;;;;;;4.07;1.47;;;;;;;11.32;42.83;99546.28;5084847;28;20043;-81
2024/03/26 03:34:25;;;;;;;2.57;1.13;;;;;;;11.42;43.52;99551.22;5085453;28;20520;-82
2024/03/26 03:37:29;;;;;;;2.97;1.08;;;;;;;11.66;43.78;99542.88;5085165;28;20050;-81
2024/03/26 03:40:24;;;;;;;2.78;0.90;;;;;;;11.48;44.77;99528.81;5084567;28;20039;-81
2024/03/26 03:43:16;;;;;;;4.20;0.88;;;;;;;11.77;44.63;99530.38;5099979;28;20047;-81
2024/03/26 03:46:11;;;;;;;2.00;1.20;;;;;;;11.86;44.94;99530.97;5080765;28;20043;-81
2024/03/26 03:49:05;;;;;;;5.13;1.20;;;;;;;11.98;46.45;99519.19;5100156;28;20051;-81
2024/03/26 03:52:00;;;;;;;4.07;0.95;;;;;;;12.29;47.87;99519.09;5080262;28;20051;-81
2024/03/26 03:54:54;;;;;;;1.77;1.20;;;;;;;12.39;48.96;99515.06;5099087;28;20043;-81
2024/03/26 03:57:44;;;;;;;2.47;0.50;;;;;;;12.49;49.71;99524.63;5084569;28;20047;-81
2024/03/26 04:00:41;;;;;;;1.15;0.73;;;;;;;12.59;49.70;99522.13;5084559;28;20397;-81
2024/03/26 04:03:39;;;;;;;5.50;1.65;;;;;;;12.70;49.79;99506.75;5084840;28;20043;-81
2024/03/26 04:06:33;;;;;;;1.02;0.80;;;;;;;12.66;50.01;99505.88;5094210;28;20059;-80
2024/03/26 04:09:28;;;;;;;5.07;0.70;;;;;;;12.78;50.40;99513.94;5084693;28;20043;-80
2024/03/26 04:12:23;;;;;;;8.15;1.10;;;;;;;12.74;50.40;99528.66;5092427;28;20043;-80
2024/03/26 04:15:17;;;;;;;1.20;0.80;;;;;;;12.80;50.77;99519.03;5082432;28;20043;-81
2024/03/26 04:18:09;;;;;;;2.67;0.80;;;;;;;12.92;50.63;99529.78;5099363;28;20051;-81
2024/03/26 04:21:04;;;;;;;2.20;1.00;;;;;;;12.85;51.05;99541.34;5084138;28;20269;-81
2024/03/26 04:23:53;;;;;;;2.50;0.70;;;;;;;12.76;50.99;99546.22;5084126;28;20043;-81
2024/03/26 04:26:48;;;;;;;3.70;1.27;;;;;;;12.83;50.66;99543.66;5078143;28;20047;-79
2024/03/26 04:29:43;;;;;;;2.53;1.20;;;;;;;12.84;50.64;99558.88;5095394;28;20051;-80
2024/03/26 04:32:38;;;;;;;0.93;0.80;;;;;;;12.87;50.15;99571.00;5099455;28;20053;-81
2024/03/26 04:35:30;;;;;;;2.10;1.33;;;;;;;12.84;50.19;99572.53;5096561;28;20043;-81
2024/03/26 04:38:29;;;;;;;2.92;1.70;;;;;;;12.84;49.76;99577.19;5084143;28;20051;-81
2024/03/26 04:41:19;;;;;;;6.53;1.40;;;;;;;12.79;49.82;99586.44;5083382;28;20115;-79
2024/03/26 04:44:13;;;;;;;2.58;1.75;;;;;;;12.83;49.56;99592.78;5098301;28;20058;-81
2024/03/26 04:47:08;;;;;;;4.30;1.47;;;;;;;12.74;49.82;99585.94;5097370;28;20047;-78
2024/03/26 04:50:02;;;;;;;3.33;2.00;;;;;;;12.74;49.48;99589.47;5081857;28;20269;-78
2024/03/26 04:52:54;;;;;;;5.18;2.05;;;;;;;12.80;49.37;99588.00;5079570;28;20067;-81
2024/03/26 04:55:49;;;;;;;1.92;1.58;;;;;;;12.88;49.32;99585.44;5077913;28;20043;-81
2024/03/26 04:58:44;;;;;;;4.23;2.00;;;;;;;12.95;49.23;99569.22;5081221;28;20111;-83
2024/03/26 05:01:36;;;;;;;2.63;1.10;;;;;;;12.91;49.31;99566.41;5083495;28;20778;-79
2024/03/26 05:04:31;;;;;;;15.05;2.25;;;;;;;13.02;48.89;99583.00;5083198;28;20296;-79
2024/03/26 05:07:25;;;;;;;3.63;1.77;;;;;;;12.86;49.65;99585.78;5098570;28;20059;-78
2024/03/26 05:10:23;;;;;;;6.25;1.63;;;;;;;12.82;49.55;99591.19;5083609;28;20063;-79
2024/03/26 05:13:17;;;;;;;6.38;1.00;;;;;;;12.83;49.57;99587.31;5098540;28;20055;-78
2024/03/26 05:16:12;;;;;;;7.00;2.63;;;;;;;13.00;49.36;99586.13;5093733;28;20043;-78
2024/03/26 05:19:12;;;;;;;5.85;1.90;;;;;;;12.91;49.36;99603.81;5097110;28;20297;-78
2024/03/26 05:22:03;;;;;;;3.58;1.60;;;;;;;12.89;49.59;99593.28;5096239;28;20043;-78
2024/03/26 05:24:56;;;;;;;3.85;1.83;;;;;;;12.98;49.20;99591.13;5088338;28;20046;-78
2024/03/26 05:27:50;;;;;;;4.75;1.85;;;;;;;12.97;49.39;99581.34;5104725;28;20047;-78
2024/03/26 05:30:44;;;;;;;5.27;1.77;;;;;;;12.92;50.10;99567.19;5090950;28;20051;-79
2024/03/26 05:33:39;;;;;;;7.00;3.30;;;;;;;12.99;50.05;99565.44;5089706;28;20046;-78
2024/03/26 05:36:34;;;;;;;4.68;1.52;;;;;;;12.97;50.50;99569.66;5095573;28;20527;-78
2024/03/26 05:39:31;;;;;;;6.00;1.30;;;;;;;12.92;51.04;99578.13;5108472;28;20059;-82
2024/03/26 05:42:24;;;;;;;2.40;1.50;;;;;;;12.95;51.29;99566.50;5110624;28;20268;-83
2024/03/26 05:45:18;;;;;;;3.28;2.22;;;;;;;12.97;51.47;99558.72;5079700;28;20063;-80
2024/03/26 05:48:13;;;;;;;5.07;2.13;;;;;;;13.00;51.67;99558.81;5079723;28;20053;-80
2024/03/26 05:51:07;;;;;;;5.77;2.30;;;;;;;13.05;52.12;99557.75;5064284;28;20059;-80
2024/03/26 05:54:02;;;;;;;7.13;1.55;;;;;;;13.03;51.90;99557.31;5105081;28;20042;-82
2024/03/26 05:56:57;;;;;;;4.03;1.40;;;;;;;13.05;51.70;99568.66;5095669;28;20039;-80
2024/03/26 05:59:51;;;;;;;5.73;1.50;;;;;;;13.08;51.99;99557.00;5106322;28;20397;-80
2024/03/26 06:02:43;;;;;;;8.27;1.88;;;;;;;13.13;52.19;99564.94;5105411;28;20055;-80
2024/03/26 06:05:38;;;;;;;3.53;1.35;;;;;;;13.27;51.80;99557.03;5118658;28;20042;-81
2024/03/26 06:08:32;;;;;;;8.32;1.10;;;;;;;13.21;51.94;99555.72;5121982;28;20046;-82
2024/03/26 06:11:27;;;;;;;3.38;1.13;;;;;;;13.24;51.96;99552.28;5106599;28;20050;-81
2024/03/26 06:14:22;;;;;;;2.20;1.27;;;;;;;13.26;51.57;99548.03;5121111;28;20051;-81
2024/03/26 06:17:16;;;;;;;1.40;0.80;;;;;;;13.30;51.65;99550.84;5100966;28;20281;-81
2024/03/26 06:20:10;;;;;;;5.28;1.05;;;;;;;13.36;51.51;99554.84;5098061;28;20051;-80
2024/03/26 06:23:05;;;;;;;6.75;1.35;;;;;;;13.39;51.28;99554.13;5088308;28;20039;-82
2024/03/26 06:25:59;;;;;;;1.80;0.67;;;;;;;13.42;51.36;99552.59;5111058;28;20042;-80
2024/03/26 06:28:54;;;;;;;1.83;1.17;;;;;;;13.41;51.59;99562.75;5101669;28;20050;-80
2024/03/26 06:31:50;;;;;;;12.27;2.45;;;;;;;13.48;51.00;99573.81;5121298;28;20039;-83
2024/03/26 06:34:42;;;;;;;6.37;1.03;;;;;;;13.56;50.63;99561.09;5120565;28;20046;-83
2024/03/26 06:37:36;;;;;;;2.65;0.77;;;;;;;13.57;51.09;99563.44;5106767;28;20051;-83
2024/03/26 06:40:29;;;;;;;4.43;1.10;;;;;;;13.58;51.31;99556.81;5106417;28;20043;-82
2024/03/26 06:43:23;;;;;;;8.32;1.38;;;;;;;13.57;51.29;99549.78;5120433;28;20404;-82
2024/03/26 06:46:15;;;;;;;5.18;1.20;;;;;;;13.58;51.25;99559.56;5101887;28;20523;-82
2024/03/26 06:49:10;;;;;;;8.75;1.02;;;;;;;13.60;51.23;99572.84;5117863;28;20046;-82
2024/03/26 06:52:06;;;;;;;5.15;0.98;;;;;;;13.56;51.39;99561.09;5089886;28;20080;-82
2024/03/26 06:55:00;;;;;;;1.77;0.60;;;;;;;13.59;51.90;99568.53;5091747;28;20043;-82
2024/03/26 06:57:52;;;;;;;1.45;0.85;;;;;;;13.58;51.82;99564.22;5081265;28;20039;-82
2024/03/26 07:00:44;;;;;;;3.20;0.95;;;;;;;13.53;51.96;99559.84;5093917;28;20047;-80
2024/03/26 07:03:36;;;;;;;2.58;0.70;;;;;;;13.60;52.36;99546.34;5102500;28;20511;-81
2024/03/26 07:06:28;;;;;;;10.05;1.35;;;;;;;13.56;52.55;99548.19;5114263;28;20050;-82
2024/03/26 07:09:23;;;;;;;9.30;0.98;;;;;;;13.57;53.02;99547.03;5097715;28;20456;-82
2024/03/26 07:12:18;;;;;;;5.73;1.33;;;;;;;13.75;53.43;99538.38;5116709;28;20523;-82
2024/03/26 07:15:13;;;;;;;8.18;1.60;;;;;;;13.75;52.87;99536.44;5098782;28;20116;-82
2024/03/26 07:18:05;;;;;;;5.13;1.33;;;;;;;13.76;53.01;99538.03;5117437;28;20404;-83
2024/03/26 07:21:05;;;;;;;5.45;1.38;;;;;;;13.81;52.53;99532.25;5099704;28;20042;-82
2024/03/26 07:23:57;;;;;;;8.70;0.85;;;;;;;13.87;52.83;99528.03;5108214;28;20405;-82
2024/03/26 07:26:51;;;;;;;3.13;1.10;;;;;;;13.92;51.76;99530.44;5092588;28;20051;-83
2024/03/26 07:29:43;;;;;;;17.53;1.57;;;;;;;14.96;54.81;99528.81;5086302;28;20055;-83
2024/03/26 07:32:38;;;;;;;4.90;0.93;;;;;;;15.21;51.58;99512.66;5096090;28;20337;-83
2024/03/26 07:35:33;;;;;;;2.75;0.55;;;;;;;15.54;50.70;99522.03;5093656;28;20047;-83
2024/03/26 07:38:27;;;;;;;3.60;0.90;;;;;;;15.68;49.72;99517.47;5091348;28;20042;-83
2024/03/26 07:41:18;;;;;;;2.50;0.80;;;;;;;15.78;50.62;99515.97;5094395;28;20118;-84
2024/03/26 07:44:12;;;;;;;1.45;0.70;;;;;;;15.73;49.82;99519.06;5090917;28;20516;-81
2024/03/26 07:47:05;;;;;;;;;;;;;;;15.83;48.90;99532.06;5091736;28;20047;-81
2024/03/26 07:50:00;;;;;;;3.90;0.75;;;;;;;15.67;48.44;99535.06;5093609;28;20199;-80
2024/03/26 07:52:54;;;;;;;4.85;0.95;;;;;;;15.67;47.64;99534.28;5091320;28;20051;-80
2024/03/26 07:55:49;;;;;;;5.13;0.80;;;;;;;15.80;47.69;99535.56;5095074;28;20043;-81
2024/03/26 07:58:43;;;;;;;2.35;0.80;;;;;;;15.74;47.28;99526.91;5092740;28;20059;-82
2024/03/26 08:01:38;;;;;;;3.53;0.60;;;;;;;15.72;47.05;99523.75;5095824;28;20126;-81
2024/03/26 08:04:32;;;;;;;3.65;0.47;;;;;;;15.77;47.40;99526.16;5090064;28;20055;-80
2024/03/26 08:07:27;;;;;;;7.13;0.83;;;;;;;15.97;47.54;99523.94;5083697;28;20043;-80
2024/03/26 08:10:16;;;;;;;3.80;0.90;;;;;;;15.73;46.59;99530.81;5094512;28;20047;-80
2024/03/26 08:13:14;;;;;;;3.60;0.65;;;;;;;15.76;46.89;99523.78;5093701;28;20047;-80
2024/03/26 08:16:06;;;;;;;2.75;1.17;;;;;;;15.79;46.53;99523.03;5090091;28;20047;-80
2024/03/26 08:19:01;;;;;;;6.10;0.80;;;;;;;15.87;46.05;99524.66;5094782;28;20063;-80
2024/03/26 08:21:55;;;;;;;6.55;0.85;;;;;;;15.76;45.60;99523.78;5092106;28;20051;-81
2024/03/26 08:24:50;;;;;;;7.63;0.60;;;;;;;15.66;45.61;99529.94;5094617;28;20512;-81
2024/03/26 08:27:39;;;;;;;2.78;0.60;;;;;;;15.58;45.72;99534.59;5092621;28;20512;-82
2024/03/26 08:30:34;;;;;;;4.00;0.80;;;;;;;15.51;45.94;99531.78;5090987;28;20051;-81
2024/03/26 08:33:28;;;;;;;2.30;0.70;;;;;;;15.68;45.88;99536.66;5099620;28;20051;-82
2024/03/26 08:36:23;;;;;;;3.37;0.77;;;;;;;15.54;45.93;99531.03;5084173;28;20111;-81
2024/03/26 08:39:15;;;;;;;7.03;0.38;;;;;;;15.52;45.60;99532.56;5095330;28;20043;-81
2024/03/26 08:42:04;;;;;;;1.20;0.50;;;;;;;15.54;45.78;99527.50;5092217;28;20051;-81
2024/03/26 08:44:59;;;;;;;4.18;0.70;;;;;;;15.61;46.12;99516.59;5091340;28;20051;-81
2024/03/26 08:47:59;;;;;;;11.60;0.82;;;;;;;15.72;46.02;99523.75;5094108;28;20047;-81
2024/03/26 08:50:53;;;;;;;4.20;0.30;;;;;;;15.58;45.94;99511.88;5092507;28;20055;-82
2024/03/26 08:53:47;;;;;;;2.63;0.40;;;;;;;15.62;45.86;99529.94;5095241;28;20043;-81
2024/03/26 08:56:42;;;;;;;0.67;0.50;;;;;;;15.59;46.06;99525.22;5090763;28;20039;-81
2024/03/26 08:59:37;;;;;;;1.95;0.40;;;;;;;15.66;46.49;99513.50;5090569;28;20607;-81
2024/03/26 09:02:27;;;;;;;2.15;0.40;;;;;;;15.71;46.53;99504.94;5093841;28;20055;-81
2024/03/26 09:05:26;;;;;;;1.40;0.33;;;;;;;15.74;45.54;99499.50;5092293;28;20416;-80
2024/03/26 09:08:20;;;;;;;2.10;0.50;;;;;;;15.65;45.78;99506.44;5100456;28;20655;-80
2024/03/26 09:11:15;;;;;;;5.50;0.50;;;;;;;15.56;46.01;99492.28;5097439;28;20047;-81
2024/03/26 09:14:05;;;;;;;2.97;0.50;;;;;;;15.52;46.28;99495.00;5094410;28;20047;-80
2024/03/26 09:16:59;;;;;;;1.38;0.60;;;;;;;15.50;46.20;99505.50;5093846;28;20404;-81
2024/03/26 09:19:51;;;;;;;3.87;0.53;;;;;;;15.58;46.55;99503.66;5096480;28;20051;-81
2024/03/26 09:22:45;;;;;;;6.50;0.70;;;;;;;15.53;46.66;99509.50;5093475;28;20281;-80
2024/03/26 09:25:41;;;;;;;1.48;0.40;;;;;;;15.54;46.43;99500.91;5098150;28;20067;-81
2024/03/26 09:28:35;;;;;;;3.85;0.68;;;;;;;15.47;46.44;99489.03;5094758;28;20067;-81
2024/03/26 09:31:30;;;;;;;3.60;0.73;;;;;;;15.67;47.38;99493.16;5097469;28;20043;-81
2024/03/26 09:34:24;;;;;;;2.43;0.73;;;;;;;15.61;47.66;99481.75;5095680;28;20046;-80
2024/03/26 09:37:14;;;;;;;0.85;0.45;;;;;;;15.57;48.00;99493.84;5093294;28;20051;-80
2024/03/26 09:40:09;;;;;;;2.38;1.17;;;;;;;15.60;48.33;99480.19;5098107;28;20059;-81
2024/03/26 09:43:08;;;;;;;1.70;0.50;;;;;;;15.63;48.66;99478.66;5096553;28;20402;-81
2024/03/26 09:46:03;;;;;;;0.52;0.38;;;;;;;15.63;48.77;99470.44;5095799;28;20405;-80
2024/03/26 09:48:59;;;;;;;3.75;0.40;;;;;;;15.66;48.77;99475.13;5095432;28;20051;-80
2024/03/26 09:51:56;;;;;;;2.08;0.40;;;;;;;15.67;48.64;99460.28;5092265;28;20043;-81
2024/03/26 09:54:53;;;;;;;1.05;0.45;;;;;;;15.62;49.11;99457.88;5096631;28;20469;-81
2024/03/26 09:57:48;;;;;;;2.15;0.55;;;;;;;15.62;48.94;99458.69;5093940;28;20055;-82
2024/03/26 10:00:49;;;;;;;3.83;0.73;;;;;;;15.59;48.70;99458.66;5097983;28;20051;-80
2024/03/26 10:03:41;;;;;;;3.00;0.68;;;;;;;15.72;48.63;99452.50;5094887;28;20058;-81
2024/03/26 10:06:38;;;;;;;3.15;0.50;;;;;;;15.85;47.98;99450.22;5093856;28;20051;-81
2024/03/26 10:09:31;;;;;;;2.75;0.75;;;;;;;15.83;47.19;99452.56;5095874;28;20067;-80
2024/03/26 10:12:25;;;;;;;5.50;0.55;;;;;;;15.74;47.15;99447.44;5094066;28;20051;-81
2024/03/26 10:15:17;;;;;;;1.58;0.52;;;;;;;15.76;46.88;99455.25;5097018;28;20051;-82
2024/03/26 10:18:07;;;;;;;1.27;0.50;;;;;;;15.68;47.28;99457.16;5094707;28;20433;-81
2024/03/26 10:21:02;;;;;;;1.40;0.50;;;;;;;15.70;47.44;99454.81;5092383;28;20043;-81
2024/03/26 10:23:55;;;;;;;2.13;0.40;;;;;;;15.71;48.13;99452.84;5096228;28;20441;-82
2024/03/26 10:26:50;;;;;;;2.25;0.55;;;;;;;15.64;48.46;99455.56;5092799;28;20063;-81
2024/03/26 10:29:45;;;;;;;3.58;0.43;;;;;;;15.48;48.72;99463.22;5097857;28;20125;-80
2024/03/26 10:32:39;;;;;;;3.20;0.63;;;;;;;15.43;49.94;99467.09;5094671;28;20047;-82
2024/03/26 10:35:35;;;;;;;4.97;0.80;;;;;;;14.88;54.08;99479.84;5092259;28;20122;-80
2024/03/26 10:38:32;;;;;;;11.95;1.25;;;;;;;14.41;57.64;99486.69;5096000;28;20047;-80
2024/03/26 10:41:46;;;;;;;1.42;0.55;;;;;;;14.17;61.56;99484.34;5093819;28;20047;-80
2024/03/26 10:44:43;;;;;;;3.22;0.75;;;;;;;14.05;62.41;99477.19;5095984;28;20051;-81
2024/03/26 10:47:37;;;;;;;1.65;0.90;;;;;;;14.21;61.92;99476.22;5093541;28;20047;-81
2024/03/26 10:50:32;;;;;;;3.17;0.97;;;;;;;14.19;60.97;99467.59;5096732;28;20043;-81
2024/03/26 10:53:30;;;;;;;4.53;0.85;;;;;;;14.26;61.50;99470.44;5094508;28;20047;-80
2024/03/26 10:56:25;;;;;;;3.10;0.90;;;;;;;14.45;60.29;99478.53;5093020;28;20039;-80
2024/03/26 10:59:17;;;;;;;1.50;0.80;;;;;;;14.62;58.49;99458.81;5096454;28;20071;-81
2024/03/26 11:02:10;;;;;;;3.22;1.45;;;;;;;14.71;57.75;99466.72;5093917;28;20044;-82
2024/03/26 11:05:05;;;;;;;2.15;0.90;;;;;;;14.79;57.10;99468.38;5096824;28;20074;-80
2024/03/26 11:08:00;;;;;;;1.65;0.52;;;;;;;14.87;56.45;99461.84;5094403;28;20519;-81
2024/03/26 11:11:10;;;;;;;1.63;0.77;;;;;;;14.85;55.59;99458.69;5091567;28;20519;-81
2024/03/26 11:14:04;;;;;;;1.30;0.80;;;;;;;14.92;55.22;99450.56;5094809;28;20051;-81
2024/03/26 11:17:03;;;;;;;2.08;0.60;;;;;;;15.04;54.16;99452.22;5091418;28;20067;-82
2024/03/26 11:19:55;;;;;;;3.38;0.82;;;;;;;14.95;54.46;99467.00;5095170;28;20512;-81
2024/03/26 11:22:55;;;;;;;4.88;0.98;;;;;;;14.84;55.27;99468.03;5093510;28;20543;-81
2024/03/26 11:25:57;;;;;;;1.23;0.80;;;;;;;14.85;55.59;99466.88;5095477;28;20047;-80
2024/03/26 11:28:52;;;;;;;4.47;1.27;;;;;;;14.85;56.13;99464.94;5093148;28;20051;-80
2024/03/26 11:31:46;;;;;;;4.00;1.47;;;;;;;14.72;56.48;99463.63;5092032;28;20047;-81
2024/03/26 11:34:40;;;;;;;5.82;1.40;;;;;;;14.92;56.62;99454.09;5095004;28;20292;-80
2024/03/26 11:37:35;;;;;;;3.30;0.63;;;;;;;15.14;56.03;99451.53;5092830;28;20043;-80
2024/03/26 11:40:29;;;;;;;7.10;1.00;;;;;;;15.17;55.44;99457.06;5083043;28;20062;-81
2024/03/26 11:43:24;;;;;;;4.43;1.27;;;;;;;15.16;55.23;99444.53;5089442;28;20039;-80
2024/03/26 11:46:18;;;;;;;3.80;0.80;;;;;;;15.11;54.94;99435.88;5091912;28;20528;-80
2024/03/26 11:49:14;;;;;;;10.88;1.40;;;;;;;15.16;55.11;99439.06;5098709;28;20043;-80
2024/03/26 11:52:07;;;;;;;8.70;1.00;;;;;;;15.13;55.12;99439.84;5091116;28;20047;-80
2024/03/26 11:55:05;;;;;;;4.45;1.05;;;;;;;15.11;55.55;99436.66;5095606;28;20162;-80
2024/03/26 11:57:59;;;;;;;3.65;1.00;;;;;;;15.09;56.02;99427.25;5092601;28;20047;-81
2024/03/26 12:00:54;;;;;;;2.53;0.97;;;;;;;15.32;55.30;99425.91;5090256;28;20047;-81
2024/03/26 12:03:59;;;;;;;5.47;1.03;;;;;;;15.53;54.18;99424.53;5094176;28;20273;-80
2024/03/26 12:06:51;;;;;;;2.30;0.93;;;;;;;15.52;53.73;99414.75;5082237;28;20408;-81
2024/03/26 12:09:46;;;;;;;4.07;1.20;;;;;;;15.60;53.46;99406.19;5095608;28;20281;-80
2024/03/26 12:12:40;;;;;;;1.88;0.60;;;;;;;15.59;53.27;99409.34;5087339;28;20047;-80
2024/03/26 12:15:32;;;;;;;4.70;1.00;;;;;;;15.64;52.96;99398.81;5087784;28;20520;-80
2024/03/26 12:18:24;;;;;;;3.72;1.30;;;;;;;15.64;52.94;99395.28;5093548;28;20280;-79
2024/03/26 12:21:20;;;;;;;3.47;0.77;;;;;;;15.73;53.06;99393.78;5092184;28;20047;-80
2024/03/26 12:24:17;;;;;;;2.55;0.70;;;;;;;15.76;52.76;99384.78;5095676;28;20043;-80
2024/03/26 12:27:08;;;;;;;3.97;0.93;;;;;;;15.80;52.90;99379.31;5091858;28;20039;-80
2024/03/26 12:30:00;;;;;;;2.38;0.85;;;;;;;16.07;52.28;99386.13;5089553;28;20059;-79
2024/03/26 12:33:02;;;;;;;2.83;0.90;;;;;;;16.08;52.41;99379.47;5093800;28;20039;-80
2024/03/26 12:35:53;;;;;;;8.38;1.10;;;;;;;15.91;52.06;99369.19;5102557;28;20043;-79
2024/03/26 12:38:48;;;;;;;1.45;0.70;;;;;;;15.84;52.16;99355.47;5094446;28;20054;-79
2024/03/26 12:41:41;;;;;;;4.45;1.17;;;;;;;15.84;52.30;99360.94;5091118;28;20150;-79
2024/03/26 12:44:36;;;;;;;4.13;0.95;;;;;;;15.86;52.22;99339.41;5090045;28;20051;-79
2024/03/26 12:47:28;;;;;;;3.90;0.73;;;;;;;15.98;51.76;99338.28;5080781;28;20044;-79
2024/03/26 12:50:23;;;;;;;4.45;0.60;;;;;;;15.99;51.49;99321.47;5043093;28;1354590;-80
2024/03/26 12:53:16;;;;;;;3.15;0.52;;;;;;;16.06;51.34;99324.22;5095121;28;20032;-80
2024/03/26 12:56:10;;;;;;;6.38;1.20;;;;;;;15.95;51.25;99312.41;5091695;28;20047;-79
2024/03/26 12:59:06;;;;;;;6.93;1.13;;;;;;;15.98;51.41;99299.91;5095842;28;20047;-79
2024/03/26 13:02:00;;;;;;;4.80;0.88;;;;;;;16.06;51.00;99298.75;5093789;28;20047;-79
2024/03/26 13:04:55;;;;;;;0.95;0.55;;;;;;;15.96;51.27;99289.31;5087562;28;20047;-80
2024/03/26 13:07:50;;;;;;;1.75;0.82;;;;;;;16.13;50.34;99279.59;5089919;28;20524;-80
2024/03/26 13:10:42;;;;;;;3.28;0.82;;;;;;;16.02;50.13;99278.75;5088040;28;20039;-80
2024/03/26 13:13:36;;;;;;;2.00;0.90;;;;;;;16.20;49.60;99271.38;5083668;28;20051;-80
2024/03/26 13:16:28;;;;;;;2.17;0.50;;;;;;;16.03;49.60;99264.66;5091618;28;20043;-80
2024/03/26 13:19:20;;;;;;;7.47;1.52;;;;;;;16.06;50.48;99250.16;5091755;28;20051;-82
2024/03/26 13:22:14;;;;;;;0.85;0.60;;;;;;;16.11;49.87;99258.03;5090586;28;20055;-81
2024/03/26 13:25:09;;;;;;;1.43;0.50;;;;;;;15.87;50.39;99263.44;5094121;28;20520;-80
2024/03/26 13:28:01;;;;;;;5.25;0.65;;;;;;;15.92;50.15;99255.63;5092065;28;20515;-81
2024/03/26 13:30:54;;;;;;;7.07;0.68;;;;;;;16.09;50.03;99251.38;5094069;28;20043;-80
2024/03/26 13:33:43;;;;;;;0.50;0.40;;;;;;;15.98;50.63;99251.34;5098523;28;20046;-80
2024/03/26 13:36:38;;;;;;;1.13;0.60;;;;;;;15.90;50.73;99254.44;5096687;28;20046;-81
2024/03/26 13:39:32;;;;;;;4.03;0.67;;;;;;;16.05;50.97;99245.84;5092088;28;20512;-80